sensor_id;sensor_type;location;lat;lon;timestamp;pressure;altitude;pressure_sealevel;temperature;humidity
68628;BME280;55611;48.602;9.490;2023-02-18T00:00:13;97860;;;15;57
68628;BME280;55611;48.602;9.490;2023-02-18T00:02:42;97860;;;15;57
68628;BME280;55611;48.602;9.490;2023-02-18T00:05:12;97860;;;14.9;57
68628;BME280;55611;48.602;9.490;2023-02-18T00:07:43;97850;;;15;57
68628;BME280;55611;48.602;9.490;2023-02-18T00:10:14;97860;;;15;57
68628;BME280;55611;48.602;9.490;2023-02-18T00:12:44;97840;;;14.9;57
68628;BME280;55611;48.602;9.490;2023-02-18T00:15:14;97860;;;14.9;57
68628;BME280;55611;48.602;9.490;2023-02-18T00:17:45;97850;;;14.9;57
68628;BME280;55611;48.602;9.490;2023-02-18T00:22:46;97830;;;14.9;57
68628;BME280;55611;48.602;9.490;2023-02-18T00:25:16;97830;;;14.9;57
68628;BME280;55611;48.602;9.490;2023-02-18T00:27:47;97810;;;14.9;57
68628;BME280;55611;48.602;9.490;2023-02-18T00:30:17;97830;;;14.9;57
68628;BME280;55611;48.602;9.490;2023-02-18T00:32:48;97810;;;14.9;57
68628;BME280;55611;48.602;9.490;2023-02-18T00:35:18;97810;;;14.9;57
68628;BME280;55611;48.602;9.490;2023-02-18T00:37:50;97810;;;15;57
68628;BME280;55611;48.602;9.490;2023-02-18T00:40:19;97790;;;15;57
68628;BME280;55611;48.602;9.490;2023-02-18T00:42:50;97800;;;15;57
68628;BME280;55611;48.602;9.490;2023-02-18T00:45:20;97810;;;15;57
68628;BME280;55611;48.602;9.490;2023-02-18T00:47:51;97810;;;15.1;56.5
68628;BME280;55611;48.602;9.490;2023-02-18T00:50:22;97800;;;15;57
68628;BME280;55611;48.602;9.490;2023-02-18T00:52:52;97800;;;15;57
68628;BME280;55611;48.602;9.490;2023-02-18T00:55:23;97810;;;15;57
68628;BME280;55611;48.602;9.490;2023-02-18T00:57:53;97810;;;15;57
68628;BME280;55611;48.602;9.490;2023-02-18T01:02:54;97810;;;15;57
68628;BME280;55611;48.602;9.490;2023-02-18T01:05:25;97800;;;15;56.5
68628;BME280;55611;48.602;9.490;2023-02-18T01:07:55;97810;;;15;57
68628;BME280;55611;48.602;9.490;2023-02-18T01:10:26;97790;;;15;57
68628;BME280;55611;48.602;9.490;2023-02-18T01:12:56;97790;;;14.9;57
68628;BME280;55611;48.602;9.490;2023-02-18T01:15:27;97810;;;15;57
68628;BME280;55611;48.602;9.490;2023-02-18T01:17:57;97800;;;15;57
68628;BME280;55611;48.602;9.490;2023-02-18T01:20:28;97810;;;14.9;57
68628;BME280;55611;48.602;9.490;2023-02-18T01:22:58;97810;;;15;57
68628;BME280;55611;48.602;9.490;2023-02-18T01:25:29;97800;;;15;57
68628;BME280;55611;48.602;9.490;2023-02-18T01:27:59;97800;;;14.9;57
68628;BME280;55611;48.602;9.490;2023-02-18T01:30:30;97790;;;15;57
68628;BME280;55611;48.602;9.490;2023-02-18T01:33:00;97800;;;15;57
68628;BME280;55611;48.602;9.490;2023-02-18T01:35:31;97820;;;15;57
68628;BME280;55611;48.602;9.490;2023-02-18T01:38:01;97780;;;15;57
68628;BME280;55611;48.602;9.490;2023-02-18T01:40:32;97780;;;15;57
68628;BME280;55611;48.602;9.490;2023-02-18T01:43:02;97790;;;15.1;57
68628;BME280;55611;48.602;9.490;2023-02-18T01:48:12;97770;;;15.1;57
68628;BME280;55611;48.602;9.490;2023-02-18T01:50:36;97780;;;15;57
68628;BME280;55611;48.602;9.490;2023-02-18T01:53:05;97780;;;15;57
68628;BME280;55611;48.602;9.490;2023-02-18T01:55:35;97780;;;15.1;57
68628;BME280;55611;48.602;9.490;2023-02-18T01:58:05;97770;;;15;57
68628;BME280;55611;48.602;9.490;2023-02-18T02:00:36;97770;;;15;57
68628;BME280;55611;48.602;9.490;2023-02-18T02:03:06;97780;;;15;57
68628;BME280;55611;48.602;9.490;2023-02-18T02:05:37;97770;;;15;57
68628;BME280;55611;48.602;9.490;2023-02-18T02:08:07;97770;;;15.1;57
68628;BME280;55611;48.602;9.490;2023-02-18T02:10:42;97790;;;15.1;57
68628;BME280;55611;48.602;9.490;2023-02-18T02:13:14;97780;;;15;56.5
68628;BME280;55611;48.602;9.490;2023-02-18T02:15:43;97780;;;15;56.5
68628;BME280;55611;48.602;9.490;2023-02-18T02:20:54;97790;;;14.9;57
68628;BME280;55611;48.602;9.490;2023-02-18T02:23:23;97770;;;14.9;57
68628;BME280;55611;48.602;9.490;2023-02-18T02:25:47;97780;;;14.9;57
68628;BME280;55611;48.602;9.490;2023-02-18T02:31:02;97760;;;14.9;57
68628;BME280;55611;48.602;9.490;2023-02-18T02:33:18;97770;;;14.9;57
68628;BME280;55611;48.602;9.490;2023-02-18T02:35:52;97770;;;14.8;57
68628;BME280;55611;48.602;9.490;2023-02-18T02:38:17;97750;;;14.9;57
68628;BME280;55611;48.602;9.490;2023-02-18T02:40:48;97750;;;14.9;57
68628;BME280;55611;48.602;9.490;2023-02-18T02:43:20;97750;;;15;56.5
68628;BME280;55611;48.602;9.490;2023-02-18T02:48:22;97740;;;15;56.5
68628;BME280;55611;48.602;9.490;2023-02-18T02:50:51;97730;;;14.9;57
68628;BME280;55611;48.602;9.490;2023-02-18T02:53:20;97740;;;14.8;57
68628;BME280;55611;48.602;9.490;2023-02-18T02:55:47;97730;;;14.9;57
68628;BME280;55611;48.602;9.490;2023-02-18T03:04:27;97770;;;14.9;57
68628;BME280;55611;48.602;9.490;2023-02-18T03:05:54;97730;;;14.8;57
68628;BME280;55611;48.602;9.490;2023-02-18T03:09:26;97730;;;14.8;57
68628;BME280;55611;48.602;9.490;2023-02-18T03:10:56;97740;;;14.8;57
68628;BME280;55611;48.602;9.490;2023-02-18T03:13:41;97730;;;14.8;57
68628;BME280;55611;48.602;9.490;2023-02-18T03:15:56;97730;;;14.8;57
68628;BME280;55611;48.602;9.490;2023-02-18T03:18:25;97730;;;14.9;56.5
68628;BME280;55611;48.602;9.490;2023-02-18T03:20:54;97730;;;14.9;56.5
68628;BME280;55611;48.602;9.490;2023-02-18T03:23:26;97740;;;14.9;57
68628;BME280;55611;48.602;9.490;2023-02-18T03:25:54;97730;;;14.9;57
68628;BME280;55611;48.602;9.490;2023-02-18T03:28:25;97730;;;15;57
68628;BME280;55611;48.602;9.490;2023-02-18T03:30:56;97740;;;15;56.5
68628;BME280;55611;48.602;9.490;2023-02-18T03:33:26;97730;;;14.9;56.5
68628;BME280;55611;48.602;9.490;2023-02-18T03:35:56;97700;;;14.9;57
68628;BME280;55611;48.602;9.490;2023-02-18T03:38:43;97710;;;14.9;57
68628;BME280;55611;48.602;9.490;2023-02-18T03:40:57;97710;;;15;56.5
68628;BME280;55611;48.602;9.490;2023-02-18T03:43:28;97700;;;15;56.5
68628;BME280;55611;48.602;9.490;2023-02-18T03:45:58;97700;;;15;56.5
68628;BME280;55611;48.602;9.490;2023-02-18T03:48:28;97700;;;15.1;56.5
68628;BME280;55611;48.602;9.490;2023-02-18T03:50:59;97690;;;15.1;56
68628;BME280;55611;48.602;9.490;2023-02-18T03:53:29;97690;;;15;56.5
68628;BME280;55611;48.602;9.490;2023-02-18T03:56:00;97710;;;15;56.5
68628;BME280;55611;48.602;9.490;2023-02-18T03:58:30;97720;;;15;56.5
68628;BME280;55611;48.602;9.490;2023-02-18T04:01:01;97690;;;15;56.5
68628;BME280;55611;48.602;9.490;2023-02-18T04:03:31;97700;;;15.1;56.5
68628;BME280;55611;48.602;9.490;2023-02-18T04:06:02;97690;;;15.1;56.5
68628;BME280;55611;48.602;9.490;2023-02-18T04:08:32;97700;;;15.1;56.5
68628;BME280;55611;48.602;9.490;2023-02-18T04:11:03;97690;;;15;56.5
68628;BME280;55611;48.602;9.490;2023-02-18T04:13:33;97700;;;15;56.5
68628;BME280;55611;48.602;9.490;2023-02-18T04:16:04;97720;;;15.1;56.5
68628;BME280;55611;48.602;9.490;2023-02-18T04:18:34;97730;;;15;56
68628;BME280;55611;48.602;9.490;2023-02-18T04:21:05;97710;;;14.9;56
68628;BME280;55611;48.602;9.490;2023-02-18T04:23:35;97710;;;14.8;56
68628;BME280;55611;48.602;9.490;2023-02-18T04:26:06;97710;;;14.9;56
68628;BME280;55611;48.602;9.490;2023-02-18T04:28:36;97720;;;14.8;56
68628;BME280;55611;48.602;9.490;2023-02-18T04:31:07;97710;;;14.8;56
68628;BME280;55611;48.602;9.490;2023-02-18T04:33:37;97710;;;14.7;56
68628;BME280;55611;48.602;9.490;2023-02-18T04:36:08;97710;;;14.6;56
68628;BME280;55611;48.602;9.490;2023-02-18T04:38:38;97710;;;14.5;56
68628;BME280;55611;48.602;9.490;2023-02-18T04:41:09;97700;;;14.5;56.5
68628;BME280;55611;48.602;9.490;2023-02-18T04:43:39;97700;;;14.5;56.5
68628;BME280;55611;48.602;9.490;2023-02-18T04:46:10;97700;;;14.5;56.5
68628;BME280;55611;48.602;9.490;2023-02-18T04:48:40;97700;;;14.4;56.5
68628;BME280;55611;48.602;9.490;2023-02-18T04:51:11;97720;;;14.3;56
68628;BME280;55611;48.602;9.490;2023-02-18T04:53:41;97710;;;14.3;56.5
68628;BME280;55611;48.602;9.490;2023-02-18T04:56:12;97700;;;14.4;56.5
68628;BME280;55611;48.602;9.490;2023-02-18T04:58:43;97710;;;14.4;56.5
68628;BME280;55611;48.602;9.490;2023-02-18T05:01:13;97710;;;14.3;56.5
68628;BME280;55611;48.602;9.490;2023-02-18T05:03:44;97700;;;14.2;56.5
68628;BME280;55611;48.602;9.490;2023-02-18T05:06:14;97700;;;14.2;56.5
68628;BME280;55611;48.602;9.490;2023-02-18T05:08:45;97710;;;14.3;56.5
68628;BME280;55611;48.602;9.490;2023-02-18T05:11:15;97700;;;14.3;56.5
68628;BME280;55611;48.602;9.490;2023-02-18T05:13:46;97700;;;14.4;56.5
68628;BME280;55611;48.602;9.490;2023-02-18T05:16:16;97700;;;14.3;56.5
68628;BME280;55611;48.602;9.490;2023-02-18T05:18:47;97700;;;14.3;56.5
68628;BME280;55611;48.602;9.490;2023-02-18T05:21:17;97690;;;14.4;56.5
68628;BME280;55611;48.602;9.490;2023-02-18T05:23:48;97700;;;14.4;56.5
68628;BME280;55611;48.602;9.490;2023-02-18T05:26:18;97700;;;14.4;56.5
68628;BME280;55611;48.602;9.490;2023-02-18T05:28:49;97690;;;14.4;56.5
68628;BME280;55611;48.602;9.490;2023-02-18T05:31:19;97690;;;14.4;56.5
68628;BME280;55611;48.602;9.490;2023-02-18T05:33:50;97690;;;14.5;56.5
68628;BME280;55611;48.602;9.490;2023-02-18T05:36:20;97700;;;14.5;56.5
68628;BME280;55611;48.602;9.490;2023-02-18T05:38:51;97720;;;14.4;56.5
68628;BME280;55611;48.602;9.490;2023-02-18T05:41:21;97690;;;14.4;56.5
68628;BME280;55611;48.602;9.490;2023-02-18T05:43:52;97700;;;14.4;56.5
68628;BME280;55611;48.602;9.490;2023-02-18T05:46:22;97680;;;14.5;56.5
68628;BME280;55611;48.602;9.490;2023-02-18T05:48:53;97690;;;14.5;56.5
68628;BME280;55611;48.602;9.490;2023-02-18T05:51:23;97690;;;14.5;56.5
68628;BME280;55611;48.602;9.490;2023-02-18T05:53:54;97680;;;14.5;56.5
68628;BME280;55611;48.602;9.490;2023-02-18T05:56:24;97690;;;14.5;56.5
68628;BME280;55611;48.602;9.490;2023-02-18T05:58:55;97690;;;14.6;56.5
68628;BME280;55611;48.602;9.490;2023-02-18T06:01:25;97680;;;14.6;56.5
68628;BME280;55611;48.602;9.490;2023-02-18T06:03:56;97700;;;14.6;56.5
68628;BME280;55611;48.602;9.490;2023-02-18T06:06:26;97690;;;14.7;56.5
68628;BME280;55611;48.602;9.490;2023-02-18T06:08:57;97680;;;14.6;56.5
68628;BME280;55611;48.602;9.490;2023-02-18T06:11:27;97690;;;14.6;56.5
68628;BME280;55611;48.602;9.490;2023-02-18T06:13:58;97690;;;14.5;56.5
68628;BME280;55611;48.602;9.490;2023-02-18T06:16:29;97680;;;14.6;56.5
68628;BME280;55611;48.602;9.490;2023-02-18T06:18:59;97700;;;14.6;56.5
68628;BME280;55611;48.602;9.490;2023-02-18T06:21:30;97700;;;14.6;56.5
68628;BME280;55611;48.602;9.490;2023-02-18T06:24:00;97670;;;14.6;56.5
68628;BME280;55611;48.602;9.490;2023-02-18T06:26:31;97670;;;14.6;56.5
68628;BME280;55611;48.602;9.490;2023-02-18T06:29:01;97670;;;14.6;56.5
68628;BME280;55611;48.602;9.490;2023-02-18T06:31:32;97660;;;14.6;56.5
68628;BME280;55611;48.602;9.490;2023-02-18T06:34:02;97680;;;14.6;56.5
68628;BME280;55611;48.602;9.490;2023-02-18T06:36:33;97690;;;14.6;56.5
68628;BME280;55611;48.602;9.490;2023-02-18T06:39:04;97670;;;14.6;56.5
68628;BME280;55611;48.602;9.490;2023-02-18T06:41:34;97680;;;14.6;56.5
68628;BME280;55611;48.602;9.490;2023-02-18T06:44:04;97690;;;14.7;56
68628;BME280;55611;48.602;9.490;2023-02-18T06:46:35;97680;;;14.7;56
68628;BME280;55611;48.602;9.490;2023-02-18T06:49:05;97690;;;14.7;56.5
68628;BME280;55611;48.602;9.490;2023-02-18T06:51:36;97690;;;14.7;56.5
68628;BME280;55611;48.602;9.490;2023-02-18T06:54:06;97690;;;14.7;56
68628;BME280;55611;48.602;9.490;2023-02-18T06:56:37;97690;;;14.7;56.5
68628;BME280;55611;48.602;9.490;2023-02-18T06:59:07;97680;;;14.6;56.5
68628;BME280;55611;48.602;9.490;2023-02-18T07:01:38;97700;;;14.6;56.5
68628;BME280;55611;48.602;9.490;2023-02-18T07:04:08;97680;;;14.6;56.5
68628;BME280;55611;48.602;9.490;2023-02-18T07:06:39;97680;;;14.6;56.5
68628;BME280;55611;48.602;9.490;2023-02-18T07:09:09;97700;;;14.6;56.5
68628;BME280;55611;48.602;9.490;2023-02-18T07:11:40;97690;;;14.6;56.5
68628;BME280;55611;48.602;9.490;2023-02-18T07:14:10;97680;;;14.7;56.5
68628;BME280;55611;48.602;9.490;2023-02-18T07:16:41;97680;;;14.7;56.5
68628;BME280;55611;48.602;9.490;2023-02-18T07:19:11;97680;;;14.8;56.5
68628;BME280;55611;48.602;9.490;2023-02-18T07:21:42;97680;;;14.8;56.5
68628;BME280;55611;48.602;9.490;2023-02-18T07:24:12;97680;;;14.8;56.5
68628;BME280;55611;48.602;9.490;2023-02-18T07:26:43;97680;;;14.8;56.5
68628;BME280;55611;48.602;9.490;2023-02-18T07:29:13;97690;;;14.9;56.5
68628;BME280;55611;48.602;9.490;2023-02-18T07:31:44;97680;;;14.9;56.5
68628;BME280;55611;48.602;9.490;2023-02-18T07:34:15;97680;;;14.9;56.5
68628;BME280;55611;48.602;9.490;2023-02-18T07:36:45;97670;;;14.9;56.5
68628;BME280;55611;48.602;9.490;2023-02-18T07:39:16;97680;;;14.9;56.5
68628;BME280;55611;48.602;9.490;2023-02-18T07:41:46;97670;;;14.9;56
68628;BME280;55611;48.602;9.490;2023-02-18T07:44:17;97680;;;14.9;56.5
68628;BME280;55611;48.602;9.490;2023-02-18T07:49:18;97680;;;14.9;56
68628;BME280;55611;48.602;9.490;2023-02-18T07:51:48;97680;;;15;56
68628;BME280;55611;48.602;9.490;2023-02-18T07:54:19;97670;;;14.9;56
68628;BME280;55611;48.602;9.490;2023-02-18T07:56:49;97670;;;14.9;56.5
68628;BME280;55611;48.602;9.490;2023-02-18T07:59:20;97680;;;14.9;56.5
68628;BME280;55611;48.602;9.490;2023-02-18T08:01:50;97660;;;15;56.5
68628;BME280;55611;48.602;9.490;2023-02-18T08:04:21;97660;;;15;56.5
68628;BME280;55611;48.602;9.490;2023-02-18T08:06:51;97680;;;15;56.5
68628;BME280;55611;48.602;9.490;2023-02-18T08:09:22;97660;;;15;56.5
68628;BME280;55611;48.602;9.490;2023-02-18T08:11:52;97640;;;15;56.5
68628;BME280;55611;48.602;9.490;2023-02-18T08:14:23;97650;;;15.1;56.5
68628;BME280;55611;48.602;9.490;2023-02-18T08:16:53;97650;;;15.2;56.5
68628;BME280;55611;48.602;9.490;2023-02-18T08:19:24;97660;;;15.3;56.5
68628;BME280;55611;48.602;9.490;2023-02-18T08:21:54;97650;;;15.2;56.5
68628;BME280;55611;48.602;9.490;2023-02-18T08:24:25;97650;;;15.2;56.5
68628;BME280;55611;48.602;9.490;2023-02-18T08:26:55;97650;;;15.3;56.5
68628;BME280;55611;48.602;9.490;2023-02-18T08:29:26;97670;;;15.3;56.5
68628;BME280;55611;48.602;9.490;2023-02-18T08:31:56;97660;;;15.2;56.5
68628;BME280;55611;48.602;9.490;2023-02-18T08:34:27;97640;;;15.1;56.5
68628;BME280;55611;48.602;9.490;2023-02-18T08:36:57;97650;;;15.1;56.5
68628;BME280;55611;48.602;9.490;2023-02-18T08:39:32;97650;;;15.1;56.5
68628;BME280;55611;48.602;9.490;2023-02-18T08:41:58;97650;;;15.1;57
68628;BME280;55611;48.602;9.490;2023-02-18T08:44:29;97650;;;15.1;57
68628;BME280;55611;48.602;9.490;2023-02-18T08:46:59;97640;;;15.1;57
68628;BME280;55611;48.602;9.490;2023-02-18T08:49:30;97660;;;15.2;57
68628;BME280;55611;48.602;9.490;2023-02-18T08:52:01;97640;;;15.2;57
68628;BME280;55611;48.602;9.490;2023-02-18T08:54:33;97640;;;15.2;57
68628;BME280;55611;48.602;9.490;2023-02-18T08:57:02;97650;;;15.3;57
68628;BME280;55611;48.602;9.490;2023-02-18T08:59:32;97640;;;15.3;57
68628;BME280;55611;48.602;9.490;2023-02-18T09:02:03;97630;;;15.4;56.5
68628;BME280;55611;48.602;9.490;2023-02-18T09:04:33;97640;;;15.5;56.5
68628;BME280;55611;48.602;9.490;2023-02-18T09:07:04;97640;;;15.5;56.5
68628;BME280;55611;48.602;9.490;2023-02-18T09:09:34;97640;;;15.5;56.5
68628;BME280;55611;48.602;9.490;2023-02-18T09:12:05;97640;;;15.5;56.5
68628;BME280;55611;48.602;9.490;2023-02-18T09:14:35;97630;;;15.5;56.5
68628;BME280;55611;48.602;9.490;2023-02-18T09:17:06;97620;;;15.5;56.5
68628;BME280;55611;48.602;9.490;2023-02-18T09:19:36;97630;;;15.5;56.5
68628;BME280;55611;48.602;9.490;2023-02-18T09:22:07;97620;;;15.5;56.5
68628;BME280;55611;48.602;9.490;2023-02-18T09:24:38;97610;;;15.5;56.5
68628;BME280;55611;48.602;9.490;2023-02-18T09:27:08;97620;;;15.6;56.5
68628;BME280;55611;48.602;9.490;2023-02-18T09:29:38;97610;;;15.5;56.5
68628;BME280;55611;48.602;9.490;2023-02-18T09:32:09;97620;;;15.5;56.5
68628;BME280;55611;48.602;9.490;2023-02-18T09:34:39;97580;;;15.6;56.5
68628;BME280;55611;48.602;9.490;2023-02-18T09:37:10;97610;;;15.6;57
68628;BME280;55611;48.602;9.490;2023-02-18T09:39:40;97600;;;15.7;56.5
68628;BME280;55611;48.602;9.490;2023-02-18T09:42:12;97610;;;15.6;57
68628;BME280;55611;48.602;9.490;2023-02-18T09:44:42;97590;;;15.7;57
68628;BME280;55611;48.602;9.490;2023-02-18T09:47:21;97600;;;15.6;57
68628;BME280;55611;48.602;9.490;2023-02-18T09:49:43;97610;;;15.7;57
68628;BME280;55611;48.602;9.490;2023-02-18T09:52:15;97590;;;15.8;56.5
68628;BME280;55611;48.602;9.490;2023-02-18T09:54:43;97570;;;15.8;56.5
68628;BME280;55611;48.602;9.490;2023-02-18T09:57:17;97590;;;15.8;56.5
68628;BME280;55611;48.602;9.490;2023-02-18T09:59:44;97590;;;15.8;56.5
68628;BME280;55611;48.602;9.490;2023-02-18T10:02:15;97590;;;15.8;56.5
68628;BME280;55611;48.602;9.490;2023-02-18T10:04:45;97590;;;15.9;56.5
68628;BME280;55611;48.602;9.490;2023-02-18T10:07:20;97590;;;15.9;56.5
68628;BME280;55611;48.602;9.490;2023-02-18T10:09:46;97600;;;15.8;56.5
68628;BME280;55611;48.602;9.490;2023-02-18T10:12:18;97600;;;15.9;56.5
68628;BME280;55611;48.602;9.490;2023-02-18T10:14:50;97600;;;15.8;56.5
68628;BME280;55611;48.602;9.490;2023-02-18T10:17:18;97590;;;15.8;56.5
68628;BME280;55611;48.602;9.490;2023-02-18T10:19:49;97620;;;15.9;56.5
68628;BME280;55611;48.602;9.490;2023-02-18T10:22:19;97620;;;15.8;56.5
68628;BME280;55611;48.602;9.490;2023-02-18T10:24:51;97610;;;15.7;56.5
68628;BME280;55611;48.602;9.490;2023-02-18T10:27:24;97620;;;15.6;56.5
68628;BME280;55611;48.602;9.490;2023-02-18T10:29:51;97620;;;15.6;56.5
68628;BME280;55611;48.602;9.490;2023-02-18T10:32:23;97620;;;15.6;56.5
68628;BME280;55611;48.602;9.490;2023-02-18T10:34:55;97610;;;15.6;56.5
68628;BME280;55611;48.602;9.490;2023-02-18T10:37:27;97620;;;15.5;56.5
68628;BME280;55611;48.602;9.490;2023-02-18T10:40:10;97610;;;15.5;56.5
68628;BME280;55611;48.602;9.490;2023-02-18T10:42:28;97610;;;15.5;56.5
68628;BME280;55611;48.602;9.490;2023-02-18T10:47:33;97620;;;15.6;56.5
68628;BME280;55611;48.602;9.490;2023-02-18T10:49:59;97630;;;15.6;56.5
68628;BME280;55611;48.602;9.490;2023-02-18T10:52:27;97620;;;15.5;56.5
68628;BME280;55611;48.602;9.490;2023-02-18T10:54:58;97620;;;15.5;56.5
68628;BME280;55611;48.602;9.490;2023-02-18T10:57:26;97610;;;15.6;56.5
68628;BME280;55611;48.602;9.490;2023-02-18T10:59:58;97620;;;15.6;56.5
68628;BME280;55611;48.602;9.490;2023-02-18T11:02:29;97620;;;15.7;56
68628;BME280;55611;48.602;9.490;2023-02-18T11:04:58;97630;;;15.8;56
68628;BME280;55611;48.602;9.490;2023-02-18T11:07:30;97620;;;15.8;56
68628;BME280;55611;48.602;9.490;2023-02-18T11:09:59;97610;;;15.8;56
68628;BME280;55611;48.602;9.490;2023-02-18T11:12:37;97600;;;15.8;56
68628;BME280;55611;48.602;9.490;2023-02-18T11:15:18;97600;;;15.9;56
68628;BME280;55611;48.602;9.490;2023-02-18T11:17:31;97620;;;15.9;56
68628;BME280;55611;48.602;9.490;2023-02-18T11:20:03;97590;;;16;56
68628;BME280;55611;48.602;9.490;2023-02-18T11:22:33;97590;;;16;56
68628;BME280;55611;48.602;9.490;2023-02-18T11:25:03;97580;;;16;56
68628;BME280;55611;48.602;9.490;2023-02-18T11:27:37;97580;;;16;56
68628;BME280;55611;48.602;9.490;2023-02-18T11:30:05;97560;;;15.9;56
68628;BME280;55611;48.602;9.490;2023-02-18T11:32:34;97580;;;15.9;56
68628;BME280;55611;48.602;9.490;2023-02-18T11:35:04;97560;;;15.9;56
68628;BME280;55611;48.602;9.490;2023-02-18T11:37:35;97570;;;16;56
68628;BME280;55611;48.602;9.490;2023-02-18T11:40:05;97560;;;16.1;56
68628;BME280;55611;48.602;9.490;2023-02-18T11:42:36;97560;;;16.1;56
68628;BME280;55611;48.602;9.490;2023-02-18T11:45:11;97540;;;16.1;56
68628;BME280;55611;48.602;9.490;2023-02-18T11:47:37;97540;;;16;56
68628;BME280;55611;48.602;9.490;2023-02-18T11:50:14;97550;;;15.9;56.5
68628;BME280;55611;48.602;9.490;2023-02-18T11:52:39;97540;;;15.9;56.5
68628;BME280;55611;48.602;9.490;2023-02-18T11:55:24;97540;;;16;56.5
68628;BME280;55611;48.602;9.490;2023-02-18T11:57:40;97540;;;15.9;56.5
68628;BME280;55611;48.602;9.490;2023-02-18T12:00:20;97540;;;16;56.5
68628;BME280;55611;48.602;9.490;2023-02-18T12:02:40;97550;;;16.1;56.5
68628;BME280;55611;48.602;9.490;2023-02-18T12:05:13;97540;;;16.1;56.5
68628;BME280;55611;48.602;9.490;2023-02-18T12:07:42;97540;;;16.2;56.5
68628;BME280;55611;48.602;9.490;2023-02-18T12:10:13;97530;;;16;56.5
68628;BME280;55611;48.602;9.490;2023-02-18T12:12:45;97530;;;15.9;56.5
68628;BME280;55611;48.602;9.490;2023-02-18T12:15:13;97530;;;16;56.5
68628;BME280;55611;48.602;9.490;2023-02-18T12:17:47;97540;;;16.1;56.5
68628;BME280;55611;48.602;9.490;2023-02-18T12:20:46;97540;;;16.3;56.5
68628;BME280;55611;48.602;9.490;2023-02-18T12:22:45;97520;;;16.2;56.5
68628;BME280;55611;48.602;9.490;2023-02-18T12:25:24;97520;;;16.1;56.5
68628;BME280;55611;48.602;9.490;2023-02-18T12:27:51;97540;;;16;56.5
68628;BME280;55611;48.602;9.490;2023-02-18T12:32:49;97530;;;16.1;56
68628;BME280;55611;48.602;9.490;2023-02-18T12:35:22;97520;;;16.1;56
68628;BME280;55611;48.602;9.490;2023-02-18T12:37:53;97510;;;16.2;56
68628;BME280;55611;48.602;9.490;2023-02-18T12:40:31;97510;;;16.2;56
68628;BME280;55611;48.602;9.490;2023-02-18T12:42:57;97520;;;16.2;56
68628;BME280;55611;48.602;9.490;2023-02-18T12:45:54;97520;;;16.2;56
68628;BME280;55611;48.602;9.490;2023-02-18T12:48:09;97520;;;16.2;56
68628;BME280;55611;48.602;9.490;2023-02-18T12:50:23;97500;;;16.1;56
68628;BME280;55611;48.602;9.490;2023-02-18T12:52:56;97510;;;16;56
68628;BME280;55611;48.602;9.490;2023-02-18T12:57:54;97510;;;16.1;56
68628;BME280;55611;48.602;9.490;2023-02-18T13:00:27;97500;;;16.1;56
68628;BME280;55611;48.602;9.490;2023-02-18T13:05:27;97510;;;16.1;56
68628;BME280;55611;48.602;9.490;2023-02-18T13:07:58;97500;;;16.2;56
68628;BME280;55611;48.602;9.490;2023-02-18T13:10:56;97490;;;16.3;56
68628;BME280;55611;48.602;9.490;2023-02-18T13:12:57;97490;;;16.4;56
68628;BME280;55611;48.602;9.490;2023-02-18T13:15:36;97480;;;16.4;56
68628;BME280;55611;48.602;9.490;2023-02-18T13:17:56;97480;;;16.4;56
68628;BME280;55611;48.602;9.490;2023-02-18T13:20:42;97470;;;16.5;56
68628;BME280;55611;48.602;9.490;2023-02-18T13:22:56;97460;;;16.6;56
68628;BME280;55611;48.602;9.490;2023-02-18T13:25:27;97460;;;16.7;56
68628;BME280;55611;48.602;9.490;2023-02-18T13:28:31;97480;;;16.7;56
68628;BME280;55611;48.602;9.490;2023-02-18T13:33:07;97460;;;16.5;56
68628;BME280;55611;48.602;9.490;2023-02-18T13:35:33;97450;;;16.5;56
68628;BME280;55611;48.602;9.490;2023-02-18T13:38:02;97450;;;16.4;56
68628;BME280;55611;48.602;9.490;2023-02-18T13:40:30;97460;;;16.4;56
68628;BME280;55611;48.602;9.490;2023-02-18T13:43:32;97440;;;16.4;56
68628;BME280;55611;48.602;9.490;2023-02-18T13:45:33;97440;;;16.5;56
68628;BME280;55611;48.602;9.490;2023-02-18T13:48:01;97450;;;16.6;55.5
68628;BME280;55611;48.602;9.490;2023-02-18T13:50:38;97440;;;16.6;55.5
68628;BME280;55611;48.602;9.490;2023-02-18T13:53:14;97460;;;16.7;55.5
68628;BME280;55611;48.602;9.490;2023-02-18T13:55:34;97440;;;16.6;55.5
68628;BME280;55611;48.602;9.490;2023-02-18T13:58:03;97450;;;16.6;56
68628;BME280;55611;48.602;9.490;2023-02-18T14:00:35;97450;;;16.6;56
68628;BME280;55611;48.602;9.490;2023-02-18T14:03:49;97440;;;16.5;56
68628;BME280;55611;48.602;9.490;2023-02-18T14:05:37;97440;;;16.5;56
68628;BME280;55611;48.602;9.490;2023-02-18T14:08:38;97450;;;16.5;55.5
68628;BME280;55611;48.602;9.490;2023-02-18T14:10:36;97450;;;16.4;55.5
68628;BME280;55611;48.602;9.490;2023-02-18T14:13:23;97440;;;16.4;55.5
68628;BME280;55611;48.602;9.490;2023-02-18T14:18:21;97430;;;16.4;55.5
68628;BME280;55611;48.602;9.490;2023-02-18T14:20:43;97430;;;16.4;55.5
